createdAt,value
2023-04-17T00:02:38.684Z,100901.88
2023-04-17T00:07:41.581Z,100901.42
2023-04-17T00:12:44.333Z,100901.49
2023-04-17T00:17:47.135Z,100896.79
2023-04-17T00:22:50.395Z,100897.32
2023-04-17T00:27:53.198Z,100903.80
2023-04-17T00:32:56.259Z,100908.52
2023-04-17T00:37:59.116Z,100909.17
2023-04-17T00:43:03.529Z,100912.77
2023-04-17T00:48:08.631Z,100917.17
2023-04-17T00:53:12.426Z,100921.09
2023-04-17T00:58:15.644Z,100919.91
2023-04-17T01:03:18.538Z,100918.04
2023-04-17T01:08:22.448Z,100920.39
2023-04-17T01:13:26.294Z,100921.66
2023-04-17T01:18:28.995Z,100919.79
2023-04-17T01:23:42.790Z,100925.06
2023-04-17T01:28:54.326Z,100925.60
2023-04-17T01:33:57.046Z,100927.30
2023-04-17T01:38:59.764Z,100928.55
2023-04-17T01:44:02.508Z,100934.48
2023-04-17T01:49:05.477Z,100934.28
2023-04-17T01:54:08.497Z,100935.48
2023-04-17T01:59:11.582Z,100940.55
2023-04-17T02:04:14.782Z,100942.50
2023-04-17T02:09:17.893Z,100950.69
2023-04-17T02:14:21.119Z,100950.17
2023-04-17T02:19:23.755Z,100951.36
2023-04-17T02:24:26.446Z,100951.20
2023-04-17T02:29:29.203Z,100952.77
2023-04-17T02:34:32.116Z,100948.73
2023-04-17T02:39:35.619Z,100947.66
2023-04-17T02:44:39.977Z,100948.02
2023-04-17T02:49:42.649Z,100951.15
2023-04-17T02:54:45.649Z,100949.52
2023-04-17T02:59:48.327Z,100945.65
2023-04-17T03:04:51.864Z,100948.81
2023-04-17T03:09:57.681Z,100946.60
2023-04-17T03:15:00.868Z,100947.68
2023-04-17T03:20:04.290Z,100946.48
2023-04-17T03:25:07.116Z,100953.34
2023-04-17T03:30:10.280Z,100947.78
2023-04-17T03:35:12.988Z,100949.88
2023-04-17T03:40:15.774Z,100947.45
2023-04-17T03:45:18.488Z,100954.12
2023-04-17T03:50:21.290Z,100954.68
2023-04-17T03:55:24.090Z,100959.56
2023-04-17T04:00:27.714Z,100957.84
2023-04-17T04:05:30.513Z,100961.50
2023-04-17T04:10:33.266Z,100966.38
2023-04-17T04:15:36.078Z,100971.08
2023-04-17T04:20:38.870Z,100977.14
2023-04-17T04:25:41.904Z,100979.73
2023-04-17T04:30:50.932Z,100983.15
2023-04-17T04:35:56.231Z,100980.25
2023-04-17T04:41:01.765Z,100984.88
2023-04-17T04:46:04.664Z,100987.27
2023-04-17T04:51:07.400Z,100988.95
2023-04-17T04:56:10.573Z,100995.63
2023-04-17T05:01:13.333Z,100999.77
2023-04-17T05:06:16.298Z,101006.49
2023-04-17T05:11:19.199Z,101010.89
2023-04-17T05:16:22.369Z,101015.31
2023-04-17T05:21:25.437Z,101020.63
2023-04-17T05:26:28.133Z,101025.20
2023-04-17T05:31:31.277Z,101030.58
2023-04-17T05:36:34.457Z,101033.41
2023-04-17T05:41:37.041Z,101039.95
2023-04-17T05:46:39.946Z,101044.58
2023-04-17T05:51:42.756Z,101051.92
2023-04-17T05:56:46.550Z,101059.63
2023-04-17T06:01:52.516Z,101062.67
2023-04-17T06:07:03.506Z,101064.84
2023-04-17T06:12:07.541Z,101071.02
2023-04-17T06:17:12.390Z,101077.73
2023-04-17T06:22:15.460Z,101080.77
2023-04-17T06:27:18.138Z,101087.17
2023-04-17T06:32:30.472Z,101085.27
2023-04-17T06:37:36.220Z,101085.52
2023-04-17T06:42:38.988Z,101089.33
2023-04-17T06:47:43.024Z,101090.98
2023-04-17T06:52:45.757Z,101092.60
2023-04-17T06:57:48.656Z,101097.04
2023-04-17T07:02:51.661Z,101100.62
2023-04-17T07:07:54.870Z,101103.16
2023-04-17T07:12:57.543Z,101107.84
2023-04-17T07:18:00.565Z,101109.00
2023-04-17T07:23:03.348Z,101120.03
2023-04-17T07:28:06.987Z,101127.14
2023-04-17T07:33:10.320Z,101129.98
2023-04-17T07:38:13.109Z,101129.55
2023-04-17T07:43:16.819Z,101136.04
2023-04-17T07:48:22.545Z,101137.02
2023-04-17T07:53:34.765Z,101140.29
2023-04-17T07:58:44.709Z,101140.40
2023-04-17T08:03:53.261Z,101147.48
2023-04-17T08:09:00.877Z,101151.37
2023-04-17T08:14:09.614Z,101157.49
2023-04-17T08:19:17.927Z,101158.88
2023-04-17T08:24:37.855Z,101164.71
2023-04-17T08:29:45.600Z,101169.23
2023-04-17T08:34:50.756Z,101175.45
2023-04-17T08:39:55.874Z,101183.33
2023-04-17T08:45:13.178Z,101189.66
2023-04-17T08:50:24.602Z,101189.19
2023-04-17T08:55:33.823Z,101192.91
2023-04-17T09:00:43.793Z,101198.14
2023-04-17T09:05:49.158Z,101203.63
2023-04-17T09:10:58.748Z,101203.75
2023-04-17T09:16:14.017Z,101205.81
2023-04-17T09:21:23.455Z,101208.52
2023-04-17T09:26:37.473Z,101211.50
2023-04-17T09:31:43.129Z,101211.05
2023-04-17T09:36:47.140Z,101211.15
2023-04-17T09:42:02.313Z,101207.52
2023-04-17T09:47:07.921Z,101212.52
2023-04-17T09:52:12.289Z,101215.52
2023-04-17T09:57:16.872Z,101213.28
2023-04-17T10:02:22.591Z,101213.80
2023-04-17T10:07:26.080Z,101212.80
2023-04-17T10:12:31.290Z,101212.10
2023-04-17T10:17:38.990Z,101220.08
2023-04-17T10:22:44.147Z,101220.80
2023-04-17T10:27:55.575Z,101217.74
2023-04-17T10:33:25.015Z,101218.41
2023-04-17T10:38:33.591Z,101218.38
2023-04-17T10:43:44.280Z,101220.07
2023-04-17T10:48:51.599Z,101219.09
2023-04-17T10:53:58.849Z,101217.89
2023-04-17T10:59:04.705Z,101223.33
2023-04-17T11:04:08.900Z,101221.91
2023-04-17T11:09:12.129Z,101226.75
2023-04-17T11:14:21.509Z,101231.78
2023-04-17T11:19:27.893Z,101229.18
2023-04-17T11:24:32.908Z,101239.15
2023-04-17T11:29:35.909Z,101239.85
2023-04-17T11:34:42.585Z,101247.05
2023-04-17T11:39:47.764Z,101241.88
2023-04-17T11:44:51.162Z,101242.88
2023-04-17T11:49:54.308Z,101247.81
2023-04-17T11:54:58.506Z,101245.55
2023-04-17T12:00:12.231Z,101249.63
2023-04-17T12:05:18.362Z,101251.41
2023-04-17T12:10:21.502Z,101248.90
2023-04-17T12:15:24.501Z,101250.74
2023-04-17T12:20:27.267Z,101248.53
2023-04-17T12:25:30.799Z,101247.05
2023-04-17T12:30:36.101Z,101241.94
2023-04-17T12:35:38.932Z,101243.10
2023-04-17T12:40:43.415Z,101246.92
2023-04-17T12:45:51.091Z,101249.05
2023-04-17T12:50:54.900Z,101252.50
2023-04-17T12:55:57.734Z,101255.25
2023-04-17T13:01:00.957Z,101259.83
2023-04-17T13:06:04.053Z,101259.81
2023-04-17T13:11:06.913Z,101256.58
2023-04-17T13:16:10.021Z,101257.57
2023-04-17T13:21:12.773Z,101257.19
2023-04-17T13:26:15.655Z,101257.11
2023-04-17T13:31:18.380Z,101260.00
2023-04-17T13:36:21.559Z,101255.48
2023-04-17T13:41:24.579Z,101265.48
2023-04-17T13:46:27.357Z,101262.70
2023-04-17T13:51:31.765Z,101260.11
2023-04-17T13:56:34.681Z,101261.86
2023-04-17T14:01:37.747Z,101260.56
2023-04-17T14:06:40.521Z,101261.00
2023-04-17T14:11:43.354Z,101261.57
2023-04-17T14:16:48.471Z,101260.16
2023-04-17T14:21:51.156Z,101260.58
2023-04-17T14:26:53.970Z,101257.24
2023-04-17T14:31:56.702Z,101263.24
2023-04-17T14:36:59.526Z,101263.44
2023-04-17T14:42:02.640Z,101264.99
2023-04-17T14:47:05.738Z,101265.61
2023-04-17T14:52:08.598Z,101268.34
2023-04-17T14:57:11.850Z,101267.80
2023-04-17T15:02:14.799Z,101268.98
2023-04-17T15:07:17.507Z,101265.30
2023-04-17T15:12:20.311Z,101264.01
2023-04-17T15:17:23.042Z,101259.73
2023-04-17T15:22:27.029Z,101262.73
2023-04-17T15:27:29.734Z,101261.69
2023-04-17T15:32:32.564Z,101255.89
2023-04-17T15:37:37.802Z,101254.44
2023-04-17T15:42:40.485Z,101257.63
2023-04-17T15:47:43.244Z,101252.98
2023-04-17T15:52:46.102Z,101255.42
2023-04-17T15:57:49.122Z,101260.13
2023-04-17T16:02:52.243Z,101261.25
2023-04-17T16:07:55.474Z,101262.48
2023-04-17T16:12:58.150Z,101257.56
2023-04-17T16:18:01.776Z,101257.30
2023-04-17T16:23:04.959Z,101266.48
2023-04-17T16:28:07.620Z,101267.96
2023-04-17T16:33:10.451Z,101272.37
2023-04-17T16:38:13.360Z,101272.04
2023-04-17T16:43:16.084Z,101267.45
2023-04-17T16:48:18.794Z,101268.64
2023-04-17T16:53:21.765Z,101274.38
2023-04-17T16:58:24.767Z,101274.52
2023-04-17T17:03:27.818Z,101279.72
2023-04-17T17:08:30.681Z,101287.27
2023-04-17T17:13:33.461Z,101289.30
2023-04-17T17:18:36.271Z,101298.90
2023-04-17T17:23:39.294Z,101301.59
2023-04-17T17:28:42.712Z,101303.27
2023-04-17T17:33:49.943Z,101306.79
2023-04-17T17:38:56.038Z,101306.04
2023-04-17T17:43:59.089Z,101308.49
2023-04-17T17:49:01.777Z,101309.63
2023-04-17T17:54:04.648Z,101315.83
2023-04-17T17:59:07.912Z,101316.05
2023-04-17T18:04:10.722Z,101316.48
2023-04-17T18:09:13.811Z,101324.64
2023-04-17T18:14:16.613Z,101328.41
2023-04-17T18:19:19.251Z,101327.47
2023-04-17T18:24:22.118Z,101325.92
2023-04-17T18:29:24.927Z,101328.38
2023-04-17T18:34:27.715Z,101334.67
2023-04-17T18:39:30.933Z,101340.55
2023-04-17T18:44:33.616Z,101343.11
2023-04-17T18:49:36.332Z,101338.68
2023-04-17T18:54:39.222Z,101336.34
2023-04-17T18:59:43.238Z,101338.30
2023-04-17T19:04:46.391Z,101332.24
2023-04-17T19:09:49.271Z,101331.93
2023-04-17T19:14:52.065Z,101328.63
2023-04-17T19:19:54.767Z,101325.98
2023-04-17T19:24:57.583Z,101326.30
2023-04-17T19:30:00.392Z,101329.02
2023-04-17T19:35:03.156Z,101334.90
2023-04-17T19:40:21.558Z,101336.27
2023-04-17T19:45:27.964Z,101340.91
2023-04-17T19:50:30.768Z,101339.64
2023-04-17T19:55:34.030Z,101340.44
2023-04-17T20:00:36.931Z,101334.63
2023-04-17T20:05:39.644Z,101337.23
2023-04-17T20:10:42.538Z,101334.42
2023-04-17T20:15:45.481Z,101337.94
2023-04-17T20:20:48.365Z,101340.91
2023-04-17T20:25:51.116Z,101339.02
2023-04-17T20:30:53.924Z,101340.13
2023-04-17T20:35:56.716Z,101338.63
2023-04-17T20:40:59.392Z,101335.88
2023-04-17T20:46:02.719Z,101335.91
2023-04-17T20:51:06.031Z,101338.87
2023-04-17T20:56:08.720Z,101340.44
2023-04-17T21:01:11.471Z,101338.70
2023-04-17T21:06:14.176Z,101340.25
2023-04-17T21:11:17.176Z,101346.70
2023-04-17T21:16:20.026Z,101349.61
2023-04-17T21:21:22.984Z,101354.14
2023-04-17T21:26:25.883Z,101360.91
2023-04-17T21:31:28.711Z,101363.33
2023-04-17T21:36:32.039Z,101361.41
2023-04-17T21:41:34.654Z,101365.92
2023-04-17T21:46:38.520Z,101364.58
2023-04-17T21:51:41.647Z,101357.11
2023-04-17T21:56:44.267Z,101355.95
2023-04-17T22:01:47.034Z,101361.22
2023-04-17T22:06:51.808Z,101359.49
2023-04-17T22:11:54.554Z,101361.75
2023-04-17T22:16:57.302Z,101363.12
2023-04-17T22:22:56.810Z,101365.20
2023-04-17T22:28:56.415Z,101369.86
2023-04-17T22:34:56.076Z,101370.40
2023-04-17T22:40:55.303Z,101370.95
2023-04-17T22:46:54.736Z,101370.98
2023-04-17T22:52:54.161Z,101373.99
2023-04-17T22:58:53.391Z,101369.64
2023-04-17T23:04:53.158Z,101371.62
2023-04-17T23:10:18.526Z,101370.14
2023-04-17T23:15:21.654Z,101377.23
2023-04-17T23:20:25.016Z,101376.06
2023-04-17T23:25:27.771Z,101376.65
2023-04-17T23:30:30.679Z,101365.37
2023-04-17T23:35:33.412Z,101360.17
2023-04-17T23:40:36.491Z,101357.09
2023-04-17T23:45:39.580Z,101362.52
2023-04-17T23:50:42.498Z,101362.20
2023-04-17T23:55:45.509Z,101360.85
